sensor_id;sensor_type;location;lat;lon;timestamp;temperature;humidity
20998;DHT22;10657;51.276;6.390;2023-02-11T00:01:06;6.80;99.90
20998;DHT22;10657;51.276;6.390;2023-02-11T00:03:34;6.80;99.90
20998;DHT22;10657;51.276;6.390;2023-02-11T00:06:04;6.70;99.90
20998;DHT22;10657;51.276;6.390;2023-02-11T00:08:31;6.70;99.90
20998;DHT22;10657;51.276;6.390;2023-02-11T00:10:57;6.80;99.90
20998;DHT22;10657;51.276;6.390;2023-02-11T00:13:24;6.80;99.90
20998;DHT22;10657;51.276;6.390;2023-02-11T00:15:51;6.80;99.90
20998;DHT22;10657;51.276;6.390;2023-02-11T00:18:18;6.70;99.90
20998;DHT22;10657;51.276;6.390;2023-02-11T00:20:45;6.70;99.90
20998;DHT22;10657;51.276;6.390;2023-02-11T00:23:12;6.70;99.90
20998;DHT22;10657;51.276;6.390;2023-02-11T00:25:40;6.70;99.90
20998;DHT22;10657;51.276;6.390;2023-02-11T00:28:08;6.60;99.90
20998;DHT22;10657;51.276;6.390;2023-02-11T00:30:36;6.60;99.90
20998;DHT22;10657;51.276;6.390;2023-02-11T00:33:03;6.60;99.90
20998;DHT22;10657;51.276;6.390;2023-02-11T00:35:29;6.60;99.90
20998;DHT22;10657;51.276;6.390;2023-02-11T00:37:56;6.50;99.90
20998;DHT22;10657;51.276;6.390;2023-02-11T00:40:23;6.50;99.90
20998;DHT22;10657;51.276;6.390;2023-02-11T00:42:49;6.50;99.90
20998;DHT22;10657;51.276;6.390;2023-02-11T00:45:16;6.50;99.90
20998;DHT22;10657;51.276;6.390;2023-02-11T00:47:43;6.50;99.90
20998;DHT22;10657;51.276;6.390;2023-02-11T00:50:09;6.40;99.90
20998;DHT22;10657;51.276;6.390;2023-02-11T00:52:36;6.40;99.90
20998;DHT22;10657;51.276;6.390;2023-02-11T00:55:03;6.40;99.90
20998;DHT22;10657;51.276;6.390;2023-02-11T00:57:29;6.40;99.90
20998;DHT22;10657;51.276;6.390;2023-02-11T00:59:56;6.40;99.90
20998;DHT22;10657;51.276;6.390;2023-02-11T01:02:23;6.30;99.90
20998;DHT22;10657;51.276;6.390;2023-02-11T01:04:49;6.30;99.90
20998;DHT22;10657;51.276;6.390;2023-02-11T01:07:16;6.40;99.90
20998;DHT22;10657;51.276;6.390;2023-02-11T01:09:43;6.30;99.90
20998;DHT22;10657;51.276;6.390;2023-02-11T01:12:09;6.30;99.90
20998;DHT22;10657;51.276;6.390;2023-02-11T01:14:36;6.20;99.90
20998;DHT22;10657;51.276;6.390;2023-02-11T01:17:04;6.20;99.90
20998;DHT22;10657;51.276;6.390;2023-02-11T01:19:31;6.20;99.90
20998;DHT22;10657;51.276;6.390;2023-02-11T01:21:58;6.20;99.90
20998;DHT22;10657;51.276;6.390;2023-02-11T01:24:25;6.20;99.90
20998;DHT22;10657;51.276;6.390;2023-02-11T01:26:51;6.20;99.90
20998;DHT22;10657;51.276;6.390;2023-02-11T01:29:18;6.20;99.90
20998;DHT22;10657;51.276;6.390;2023-02-11T01:31:45;6.20;99.90
20998;DHT22;10657;51.276;6.390;2023-02-11T01:34:12;6.20;99.90
20998;DHT22;10657;51.276;6.390;2023-02-11T01:36:39;6.20;99.90
20998;DHT22;10657;51.276;6.390;2023-02-11T01:39:05;6.20;99.90
20998;DHT22;10657;51.276;6.390;2023-02-11T01:41:34;6.20;99.90
20998;DHT22;10657;51.276;6.390;2023-02-11T01:44:30;6.20;99.90
20998;DHT22;10657;51.276;6.390;2023-02-11T01:46:57;6.20;99.90
20998;DHT22;10657;51.276;6.390;2023-02-11T01:49:30;6.20;99.90
20998;DHT22;10657;51.276;6.390;2023-02-11T01:52:14;6.10;99.90
20998;DHT22;10657;51.276;6.390;2023-02-11T01:54:47;6.10;99.90
20998;DHT22;10657;51.276;6.390;2023-02-11T01:57:35;6.10;99.90
20998;DHT22;10657;51.276;6.390;2023-02-11T02:05:21;6.20;99.90
20998;DHT22;10657;51.276;6.390;2023-02-11T02:08:05;6.20;99.90
20998;DHT22;10657;51.276;6.390;2023-02-11T02:10:35;6.20;99.90
20998;DHT22;10657;51.276;6.390;2023-02-11T02:13:03;6.20;99.90
20998;DHT22;10657;51.276;6.390;2023-02-11T02:15:33;6.10;99.90
20998;DHT22;10657;51.276;6.390;2023-02-11T02:20:55;6.10;99.90
20998;DHT22;10657;51.276;6.390;2023-02-11T02:32:31;6.20;99.90
20998;DHT22;10657;51.276;6.390;2023-02-11T02:35:35;6.20;99.90
20998;DHT22;10657;51.276;6.390;2023-02-11T02:38:21;6.20;99.90
20998;DHT22;10657;51.276;6.390;2023-02-11T02:40:59;6.20;99.90
20998;DHT22;10657;51.276;6.390;2023-02-11T02:43:28;6.20;99.90
20998;DHT22;10657;51.276;6.390;2023-02-11T02:46:15;6.10;99.90
20998;DHT22;10657;51.276;6.390;2023-02-11T02:48:42;6.10;99.90
20998;DHT22;10657;51.276;6.390;2023-02-11T02:54:28;6.10;99.90
20998;DHT22;10657;51.276;6.390;2023-02-11T02:57:28;6.20;99.90
20998;DHT22;10657;51.276;6.390;2023-02-11T03:00:22;6.20;99.90
20998;DHT22;10657;51.276;6.390;2023-02-11T03:03:20;6.10;99.90
20998;DHT22;10657;51.276;6.390;2023-02-11T03:06:03;6.10;99.90
20998;DHT22;10657;51.276;6.390;2023-02-11T03:08:45;6.20;99.90
20998;DHT22;10657;51.276;6.390;2023-02-11T03:11:15;6.20;99.90
20998;DHT22;10657;51.276;6.390;2023-02-11T03:13:43;6.10;99.90
20998;DHT22;10657;51.276;6.390;2023-02-11T03:16:15;6.10;99.90
20998;DHT22;10657;51.276;6.390;2023-02-11T03:18:48;6.10;99.90
20998;DHT22;10657;51.276;6.390;2023-02-11T03:21:16;6.10;99.90
20998;DHT22;10657;51.276;6.390;2023-02-11T03:23:52;6.10;99.90
20998;DHT22;10657;51.276;6.390;2023-02-11T03:26:27;6.10;99.90
20998;DHT22;10657;51.276;6.390;2023-02-11T03:31:43;6.10;99.90
20998;DHT22;10657;51.276;6.390;2023-02-11T03:34:35;6.10;99.90
20998;DHT22;10657;51.276;6.390;2023-02-11T03:37:15;6.10;99.90
20998;DHT22;10657;51.276;6.390;2023-02-11T03:40:02;6.10;99.90
20998;DHT22;10657;51.276;6.390;2023-02-11T03:42:35;6.10;99.90
20998;DHT22;10657;51.276;6.390;2023-02-11T03:45:05;6.00;99.90
20998;DHT22;10657;51.276;6.390;2023-02-11T03:47:37;6.00;99.90
20998;DHT22;10657;51.276;6.390;2023-02-11T03:50:06;6.00;99.90
20998;DHT22;10657;51.276;6.390;2023-02-11T03:52:35;6.00;99.90
20998;DHT22;10657;51.276;6.390;2023-02-11T03:55:08;6.00;99.90
20998;DHT22;10657;51.276;6.390;2023-02-11T03:57:37;6.00;99.90
20998;DHT22;10657;51.276;6.390;2023-02-11T04:00:05;6.00;99.90
20998;DHT22;10657;51.276;6.390;2023-02-11T04:02:33;5.90;99.90
20998;DHT22;10657;51.276;6.390;2023-02-11T04:05:00;5.90;99.90
20998;DHT22;10657;51.276;6.390;2023-02-11T04:07:27;5.90;99.90
20998;DHT22;10657;51.276;6.390;2023-02-11T04:09:54;6.00;99.90
20998;DHT22;10657;51.276;6.390;2023-02-11T04:12:20;6.00;99.90
20998;DHT22;10657;51.276;6.390;2023-02-11T04:14:47;5.90;99.90
20998;DHT22;10657;51.276;6.390;2023-02-11T04:17:14;5.90;99.90
20998;DHT22;10657;51.276;6.390;2023-02-11T04:19:40;5.90;99.90
20998;DHT22;10657;51.276;6.390;2023-02-11T04:22:07;5.90;99.90
20998;DHT22;10657;51.276;6.390;2023-02-11T04:24:34;5.90;99.90
20998;DHT22;10657;51.276;6.390;2023-02-11T04:27:01;6.00;99.90
20998;DHT22;10657;51.276;6.390;2023-02-11T04:29:27;5.90;99.90
20998;DHT22;10657;51.276;6.390;2023-02-11T04:31:54;5.90;99.90
20998;DHT22;10657;51.276;6.390;2023-02-11T04:34:21;5.90;99.90
20998;DHT22;10657;51.276;6.390;2023-02-11T04:36:48;5.90;99.90
20998;DHT22;10657;51.276;6.390;2023-02-11T04:39:15;5.90;99.90
20998;DHT22;10657;51.276;6.390;2023-02-11T04:41:42;5.90;99.90
20998;DHT22;10657;51.276;6.390;2023-02-11T04:44:09;5.90;99.90
20998;DHT22;10657;51.276;6.390;2023-02-11T04:46:36;5.90;99.90
20998;DHT22;10657;51.276;6.390;2023-02-11T04:49:02;5.90;99.90
20998;DHT22;10657;51.276;6.390;2023-02-11T04:51:30;5.90;99.90
20998;DHT22;10657;51.276;6.390;2023-02-11T04:53:56;5.90;99.90
20998;DHT22;10657;51.276;6.390;2023-02-11T04:56:23;5.90;99.90
20998;DHT22;10657;51.276;6.390;2023-02-11T04:58:49;5.90;99.90
20998;DHT22;10657;51.276;6.390;2023-02-11T05:01:16;5.90;99.90
20998;DHT22;10657;51.276;6.390;2023-02-11T05:03:43;5.90;99.90
20998;DHT22;10657;51.276;6.390;2023-02-11T05:06:10;5.90;99.90
20998;DHT22;10657;51.276;6.390;2023-02-11T05:08:37;5.90;99.90
20998;DHT22;10657;51.276;6.390;2023-02-11T05:11:04;5.90;99.90
20998;DHT22;10657;51.276;6.390;2023-02-11T05:13:31;5.90;99.90
20998;DHT22;10657;51.276;6.390;2023-02-11T05:15:57;6.00;99.90
20998;DHT22;10657;51.276;6.390;2023-02-11T05:18:24;6.00;99.90
20998;DHT22;10657;51.276;6.390;2023-02-11T05:20:51;6.00;99.90
20998;DHT22;10657;51.276;6.390;2023-02-11T05:23:17;5.90;99.90
20998;DHT22;10657;51.276;6.390;2023-02-11T05:25:44;6.00;99.90
20998;DHT22;10657;51.276;6.390;2023-02-11T05:28:10;6.00;99.90
20998;DHT22;10657;51.276;6.390;2023-02-11T05:30:37;6.00;99.90
20998;DHT22;10657;51.276;6.390;2023-02-11T05:33:04;6.00;99.90
20998;DHT22;10657;51.276;6.390;2023-02-11T05:35:31;6.00;99.90
20998;DHT22;10657;51.276;6.390;2023-02-11T05:37:57;6.00;99.90
20998;DHT22;10657;51.276;6.390;2023-02-11T05:40:24;6.00;99.90
20998;DHT22;10657;51.276;6.390;2023-02-11T05:42:50;6.00;99.90
20998;DHT22;10657;51.276;6.390;2023-02-11T05:45:17;6.00;99.90
20998;DHT22;10657;51.276;6.390;2023-02-11T05:47:44;6.00;99.90
20998;DHT22;10657;51.276;6.390;2023-02-11T05:50:10;6.00;99.90
20998;DHT22;10657;51.276;6.390;2023-02-11T05:52:37;6.00;99.90
20998;DHT22;10657;51.276;6.390;2023-02-11T05:55:04;6.00;99.90
20998;DHT22;10657;51.276;6.390;2023-02-11T05:57:31;6.00;99.90
20998;DHT22;10657;51.276;6.390;2023-02-11T05:59:58;6.00;99.90
20998;DHT22;10657;51.276;6.390;2023-02-11T06:02:24;6.00;99.90
20998;DHT22;10657;51.276;6.390;2023-02-11T06:04:51;6.00;99.90
20998;DHT22;10657;51.276;6.390;2023-02-11T06:07:18;6.00;99.90
20998;DHT22;10657;51.276;6.390;2023-02-11T06:09:45;6.00;99.90
20998;DHT22;10657;51.276;6.390;2023-02-11T06:12:11;6.00;99.90
20998;DHT22;10657;51.276;6.390;2023-02-11T06:14:38;6.00;99.90
20998;DHT22;10657;51.276;6.390;2023-02-11T06:17:05;6.00;99.90
20998;DHT22;10657;51.276;6.390;2023-02-11T06:19:32;6.00;99.90
20998;DHT22;10657;51.276;6.390;2023-02-11T06:21:58;6.00;99.90
20998;DHT22;10657;51.276;6.390;2023-02-11T06:24:25;6.00;99.90
20998;DHT22;10657;51.276;6.390;2023-02-11T06:27:11;6.00;99.90
20998;DHT22;10657;51.276;6.390;2023-02-11T06:29:38;6.00;99.90
20998;DHT22;10657;51.276;6.390;2023-02-11T06:32:05;6.00;99.90
20998;DHT22;10657;51.276;6.390;2023-02-11T06:34:33;6.00;99.90
20998;DHT22;10657;51.276;6.390;2023-02-11T06:36:59;6.00;99.90
20998;DHT22;10657;51.276;6.390;2023-02-11T06:39:26;6.00;99.90
20998;DHT22;10657;51.276;6.390;2023-02-11T06:41:52;6.00;99.90
20998;DHT22;10657;51.276;6.390;2023-02-11T06:44:19;6.00;99.90
20998;DHT22;10657;51.276;6.390;2023-02-11T06:46:46;6.00;99.90
20998;DHT22;10657;51.276;6.390;2023-02-11T06:49:13;6.00;99.90
20998;DHT22;10657;51.276;6.390;2023-02-11T06:51:39;6.00;99.90
20998;DHT22;10657;51.276;6.390;2023-02-11T06:54:06;6.10;99.90
20998;DHT22;10657;51.276;6.390;2023-02-11T06:56:34;6.00;99.90
20998;DHT22;10657;51.276;6.390;2023-02-11T06:59:02;6.00;99.90
20998;DHT22;10657;51.276;6.390;2023-02-11T07:01:28;6.00;99.90
20998;DHT22;10657;51.276;6.390;2023-02-11T07:03:55;6.00;99.90
20998;DHT22;10657;51.276;6.390;2023-02-11T07:06:24;6.10;99.90
20998;DHT22;10657;51.276;6.390;2023-02-11T07:08:54;6.10;99.90
20998;DHT22;10657;51.276;6.390;2023-02-11T07:11:23;6.10;99.90
20998;DHT22;10657;51.276;6.390;2023-02-11T07:13:51;6.10;99.90
20998;DHT22;10657;51.276;6.390;2023-02-11T07:16:19;6.10;99.90
20998;DHT22;10657;51.276;6.390;2023-02-11T07:18:47;6.10;99.90
20998;DHT22;10657;51.276;6.390;2023-02-11T07:21:16;6.10;99.90
20998;DHT22;10657;51.276;6.390;2023-02-11T07:23:43;6.10;99.90
20998;DHT22;10657;51.276;6.390;2023-02-11T07:26:12;6.10;99.90
20998;DHT22;10657;51.276;6.390;2023-02-11T07:28:40;6.10;99.90
20998;DHT22;10657;51.276;6.390;2023-02-11T07:31:15;6.10;99.90
20998;DHT22;10657;51.276;6.390;2023-02-11T07:33:42;6.10;99.90
20998;DHT22;10657;51.276;6.390;2023-02-11T07:36:12;6.10;99.90
20998;DHT22;10657;51.276;6.390;2023-02-11T07:38:40;6.10;99.90
20998;DHT22;10657;51.276;6.390;2023-02-11T07:41:09;6.10;99.90
20998;DHT22;10657;51.276;6.390;2023-02-11T07:43:37;6.10;99.90
20998;DHT22;10657;51.276;6.390;2023-02-11T07:46:06;6.20;99.90
20998;DHT22;10657;51.276;6.390;2023-02-11T07:48:33;6.10;99.90
20998;DHT22;10657;51.276;6.390;2023-02-11T07:51:11;6.10;99.90
20998;DHT22;10657;51.276;6.390;2023-02-11T07:53:38;6.20;99.90
20998;DHT22;10657;51.276;6.390;2023-02-11T07:56:07;6.20;99.90
20998;DHT22;10657;51.276;6.390;2023-02-11T07:58:34;6.20;99.90
20998;DHT22;10657;51.276;6.390;2023-02-11T08:01:05;6.20;99.90
20998;DHT22;10657;51.276;6.390;2023-02-11T08:03:34;6.20;99.90
20998;DHT22;10657;51.276;6.390;2023-02-11T08:06:05;6.20;99.90
20998;DHT22;10657;51.276;6.390;2023-02-11T08:08:32;6.20;99.90
20998;DHT22;10657;51.276;6.390;2023-02-11T08:11:05;6.20;99.90
20998;DHT22;10657;51.276;6.390;2023-02-11T08:13:33;6.20;99.90
20998;DHT22;10657;51.276;6.390;2023-02-11T08:15:59;6.20;99.90
20998;DHT22;10657;51.276;6.390;2023-02-11T08:18:26;6.30;99.90
20998;DHT22;10657;51.276;6.390;2023-02-11T08:20:53;6.30;99.90
20998;DHT22;10657;51.276;6.390;2023-02-11T08:23:19;6.30;99.90
20998;DHT22;10657;51.276;6.390;2023-02-11T08:25:46;6.30;99.90
20998;DHT22;10657;51.276;6.390;2023-02-11T08:28:13;6.30;99.90
20998;DHT22;10657;51.276;6.390;2023-02-11T08:30:39;6.30;99.90
20998;DHT22;10657;51.276;6.390;2023-02-11T08:33:06;6.40;99.90
20998;DHT22;10657;51.276;6.390;2023-02-11T08:35:34;6.40;99.90
20998;DHT22;10657;51.276;6.390;2023-02-11T08:38:01;6.40;99.90
20998;DHT22;10657;51.276;6.390;2023-02-11T08:40:28;6.40;99.90
20998;DHT22;10657;51.276;6.390;2023-02-11T08:42:55;6.40;99.90
20998;DHT22;10657;51.276;6.390;2023-02-11T08:45:21;6.40;99.90
20998;DHT22;10657;51.276;6.390;2023-02-11T08:47:48;6.50;99.90
20998;DHT22;10657;51.276;6.390;2023-02-11T08:50:14;6.50;99.90
20998;DHT22;10657;51.276;6.390;2023-02-11T08:52:41;6.50;99.90
20998;DHT22;10657;51.276;6.390;2023-02-11T08:55:08;6.50;99.90
20998;DHT22;10657;51.276;6.390;2023-02-11T08:57:35;6.50;99.90
20998;DHT22;10657;51.276;6.390;2023-02-11T09:00:02;6.50;99.90
20998;DHT22;10657;51.276;6.390;2023-02-11T09:02:29;6.60;99.90
20998;DHT22;10657;51.276;6.390;2023-02-11T09:04:56;6.50;99.90
20998;DHT22;10657;51.276;6.390;2023-02-11T09:07:22;6.50;99.90
20998;DHT22;10657;51.276;6.390;2023-02-11T09:09:49;6.60;99.90
20998;DHT22;10657;51.276;6.390;2023-02-11T09:12:15;6.60;99.90
20998;DHT22;10657;51.276;6.390;2023-02-11T09:14:42;6.60;99.90
20998;DHT22;10657;51.276;6.390;2023-02-11T09:17:09;6.60;99.90
20998;DHT22;10657;51.276;6.390;2023-02-11T09:19:35;6.70;99.90
20998;DHT22;10657;51.276;6.390;2023-02-11T09:22:02;6.70;99.90
20998;DHT22;10657;51.276;6.390;2023-02-11T09:24:28;6.70;99.90
20998;DHT22;10657;51.276;6.390;2023-02-11T09:26:55;6.70;99.90
20998;DHT22;10657;51.276;6.390;2023-02-11T09:29:22;6.70;99.90
20998;DHT22;10657;51.276;6.390;2023-02-11T09:31:48;6.70;99.90
20998;DHT22;10657;51.276;6.390;2023-02-11T09:34:15;6.80;99.90
20998;DHT22;10657;51.276;6.390;2023-02-11T09:36:42;6.80;99.90
20998;DHT22;10657;51.276;6.390;2023-02-11T09:39:12;6.80;99.90
20998;DHT22;10657;51.276;6.390;2023-02-11T09:44:33;6.80;99.90
20998;DHT22;10657;51.276;6.390;2023-02-11T09:47:03;6.80;99.90
20998;DHT22;10657;51.276;6.390;2023-02-11T09:49:38;6.70;99.90
20998;DHT22;10657;51.276;6.390;2023-02-11T09:54:57;6.80;99.90
20998;DHT22;10657;51.276;6.390;2023-02-11T09:57:31;6.90;99.90
20998;DHT22;10657;51.276;6.390;2023-02-11T09:59:58;6.90;99.90
20998;DHT22;10657;51.276;6.390;2023-02-11T10:08:08;6.90;99.90
20998;DHT22;10657;51.276;6.390;2023-02-11T10:22:05;6.90;99.90
20998;DHT22;10657;51.276;6.390;2023-02-11T10:24:35;7.00;99.90
20998;DHT22;10657;51.276;6.390;2023-02-11T10:27:15;7.00;99.90
20998;DHT22;10657;51.276;6.390;2023-02-11T10:29:47;7.00;99.90
20998;DHT22;10657;51.276;6.390;2023-02-11T10:35:13;7.00;99.90
20998;DHT22;10657;51.276;6.390;2023-02-11T10:37:40;7.00;99.90
20998;DHT22;10657;51.276;6.390;2023-02-11T10:40:18;7.00;99.90
20998;DHT22;10657;51.276;6.390;2023-02-11T10:42:51;7.00;99.90
20998;DHT22;10657;51.276;6.390;2023-02-11T10:45:32;7.10;99.90
20998;DHT22;10657;51.276;6.390;2023-02-11T10:48:02;7.10;99.90
20998;DHT22;10657;51.276;6.390;2023-02-11T10:50:31;7.10;99.90
20998;DHT22;10657;51.276;6.390;2023-02-11T10:53:16;7.10;99.90
20998;DHT22;10657;51.276;6.390;2023-02-11T10:55:56;7.20;99.90
20998;DHT22;10657;51.276;6.390;2023-02-11T10:59:00;7.20;99.90
20998;DHT22;10657;51.276;6.390;2023-02-11T11:01:49;7.20;99.90
20998;DHT22;10657;51.276;6.390;2023-02-11T11:04:34;7.20;99.90
20998;DHT22;10657;51.276;6.390;2023-02-11T11:07:41;7.20;99.90
20998;DHT22;10657;51.276;6.390;2023-02-11T11:13:01;7.20;99.90
20998;DHT22;10657;51.276;6.390;2023-02-11T11:15:30;7.20;99.90
20998;DHT22;10657;51.276;6.390;2023-02-11T11:18:13;7.30;99.90
20998;DHT22;10657;51.276;6.390;2023-02-11T11:21:00;7.30;99.90
20998;DHT22;10657;51.276;6.390;2023-02-11T11:23:29;7.30;99.90
20998;DHT22;10657;51.276;6.390;2023-02-11T11:28:28;7.30;99.90
20998;DHT22;10657;51.276;6.390;2023-02-11T11:30:57;7.40;99.90
20998;DHT22;10657;51.276;6.390;2023-02-11T11:33:30;7.30;99.90
20998;DHT22;10657;51.276;6.390;2023-02-11T11:36:04;7.30;99.90
20998;DHT22;10657;51.276;6.390;2023-02-11T11:38:34;7.40;99.90
20998;DHT22;10657;51.276;6.390;2023-02-11T11:41:21;7.40;99.90
20998;DHT22;10657;51.276;6.390;2023-02-11T11:44:00;7.40;99.90
20998;DHT22;10657;51.276;6.390;2023-02-11T11:46:38;7.40;99.90
20998;DHT22;10657;51.276;6.390;2023-02-11T11:49:16;7.40;99.90
20998;DHT22;10657;51.276;6.390;2023-02-11T11:52:10;7.40;99.90
20998;DHT22;10657;51.276;6.390;2023-02-11T11:54:44;7.40;99.90
20998;DHT22;10657;51.276;6.390;2023-02-11T11:57:19;7.40;99.90
20998;DHT22;10657;51.276;6.390;2023-02-11T11:59:47;7.50;99.90
20998;DHT22;10657;51.276;6.390;2023-02-11T12:05:15;7.50;99.90
20998;DHT22;10657;51.276;6.390;2023-02-11T12:10:47;7.50;99.90
20998;DHT22;10657;51.276;6.390;2023-02-11T12:24:25;7.60;99.90
20998;DHT22;10657;51.276;6.390;2023-02-11T12:27:02;7.60;99.90
20998;DHT22;10657;51.276;6.390;2023-02-11T12:30:11;7.60;99.90
20998;DHT22;10657;51.276;6.390;2023-02-11T12:33:06;7.60;99.90
20998;DHT22;10657;51.276;6.390;2023-02-11T12:36:11;7.70;99.90
20998;DHT22;10657;51.276;6.390;2023-02-11T12:41:33;7.70;99.90
20998;DHT22;10657;51.276;6.390;2023-02-11T12:44:42;7.70;99.90
20998;DHT22;10657;51.276;6.390;2023-02-11T12:53:07;7.90;99.90
20998;DHT22;10657;51.276;6.390;2023-02-11T12:55:43;7.90;99.90
20998;DHT22;10657;51.276;6.390;2023-02-11T12:58:17;7.90;99.90
20998;DHT22;10657;51.276;6.390;2023-02-11T13:01:01;7.90;99.90
20998;DHT22;10657;51.276;6.390;2023-02-11T13:03:42;7.90;99.90
20998;DHT22;10657;51.276;6.390;2023-02-11T13:06:16;8.00;99.90
20998;DHT22;10657;51.276;6.390;2023-02-11T13:08:52;8.00;99.90
20998;DHT22;10657;51.276;6.390;2023-02-11T13:11:28;8.10;99.90
20998;DHT22;10657;51.276;6.390;2023-02-11T13:14:08;8.10;99.90
20998;DHT22;10657;51.276;6.390;2023-02-11T13:16:44;8.10;99.90
20998;DHT22;10657;51.276;6.390;2023-02-11T13:24:20;8.20;99.90
20998;DHT22;10657;51.276;6.390;2023-02-11T13:38:21;8.40;99.90
20998;DHT22;10657;51.276;6.390;2023-02-11T13:43:30;8.40;99.90
20998;DHT22;10657;51.276;6.390;2023-02-11T13:46:00;8.40;99.90
20998;DHT22;10657;51.276;6.390;2023-02-11T13:48:30;8.50;99.90
20998;DHT22;10657;51.276;6.390;2023-02-11T13:50:59;8.50;99.90
20998;DHT22;10657;51.276;6.390;2023-02-11T13:53:27;8.50;99.90
20998;DHT22;10657;51.276;6.390;2023-02-11T13:56:10;8.50;99.90
20998;DHT22;10657;51.276;6.390;2023-02-11T13:58:48;8.60;99.90
20998;DHT22;10657;51.276;6.390;2023-02-11T14:05:08;8.60;99.90
20998;DHT22;10657;51.276;6.390;2023-02-11T14:16:22;8.80;99.90
20998;DHT22;10657;51.276;6.390;2023-02-11T14:19:03;8.80;99.90
20998;DHT22;10657;51.276;6.390;2023-02-11T14:21:34;8.70;99.90
20998;DHT22;10657;51.276;6.390;2023-02-11T14:26:54;8.80;99.90
20998;DHT22;10657;51.276;6.390;2023-02-11T14:29:42;8.80;99.90
20998;DHT22;10657;51.276;6.390;2023-02-11T14:35:22;8.70;99.90
20998;DHT22;10657;51.276;6.390;2023-02-11T14:43:40;8.70;99.90
20998;DHT22;10657;51.276;6.390;2023-02-11T14:46:09;8.70;99.90
20998;DHT22;10657;51.276;6.390;2023-02-11T14:48:37;8.70;99.90
20998;DHT22;10657;51.276;6.390;2023-02-11T14:51:10;8.70;99.90
20998;DHT22;10657;51.276;6.390;2023-02-11T14:53:42;8.80;99.90
20998;DHT22;10657;51.276;6.390;2023-02-11T14:56:21;8.80;99.90
20998;DHT22;10657;51.276;6.390;2023-02-11T14:58:51;8.80;99.90
20998;DHT22;10657;51.276;6.390;2023-02-11T15:03:56;8.70;99.90
20998;DHT22;10657;51.276;6.390;2023-02-11T15:06:29;8.70;99.90
20998;DHT22;10657;51.276;6.390;2023-02-11T15:09:18;8.70;99.90
20998;DHT22;10657;51.276;6.390;2023-02-11T15:11:47;8.70;99.90
20998;DHT22;10657;51.276;6.390;2023-02-11T15:14:26;8.70;99.90
20998;DHT22;10657;51.276;6.390;2023-02-11T15:16:56;8.70;99.90
20998;DHT22;10657;51.276;6.390;2023-02-11T15:19:29;8.70;99.90
20998;DHT22;10657;51.276;6.390;2023-02-11T15:22:00;8.70;99.90
20998;DHT22;10657;51.276;6.390;2023-02-11T15:24:31;8.70;99.90
20998;DHT22;10657;51.276;6.390;2023-02-11T15:29:39;8.70;99.90
20998;DHT22;10657;51.276;6.390;2023-02-11T15:32:13;8.60;99.90
20998;DHT22;10657;51.276;6.390;2023-02-11T15:34:41;8.60;99.90
20998;DHT22;10657;51.276;6.390;2023-02-11T15:37:25;8.60;99.90
20998;DHT22;10657;51.276;6.390;2023-02-11T15:39:53;8.60;99.90
20998;DHT22;10657;51.276;6.390;2023-02-11T15:42:27;8.60;99.90
20998;DHT22;10657;51.276;6.390;2023-02-11T15:47:45;8.60;99.90
20998;DHT22;10657;51.276;6.390;2023-02-11T15:50:47;8.60;99.90
20998;DHT22;10657;51.276;6.390;2023-02-11T15:53:28;8.60;99.90
20998;DHT22;10657;51.276;6.390;2023-02-11T15:56:23;8.50;99.90
20998;DHT22;10657;51.276;6.390;2023-02-11T15:58:57;8.50;99.90
20998;DHT22;10657;51.276;6.390;2023-02-11T16:01:32;8.50;99.90
20998;DHT22;10657;51.276;6.390;2023-02-11T16:04:00;8.50;99.90
20998;DHT22;10657;51.276;6.390;2023-02-11T16:06:37;8.50;99.90
20998;DHT22;10657;51.276;6.390;2023-02-11T16:11:53;8.50;99.90
20998;DHT22;10657;51.276;6.390;2023-02-11T16:19:42;8.50;99.90
20998;DHT22;10657;51.276;6.390;2023-02-11T16:22:18;8.50;99.90
20998;DHT22;10657;51.276;6.390;2023-02-11T16:24:47;8.50;99.90
20998;DHT22;10657;51.276;6.390;2023-02-11T16:27:32;8.50;99.90
20998;DHT22;10657;51.276;6.390;2023-02-11T16:30:03;8.50;99.90
20998;DHT22;10657;51.276;6.390;2023-02-11T16:32:30;8.40;99.90
20998;DHT22;10657;51.276;6.390;2023-02-11T16:34:58;8.50;99.90
20998;DHT22;10657;51.276;6.390;2023-02-11T16:37:26;8.40;99.90
20998;DHT22;10657;51.276;6.390;2023-02-11T16:39:54;8.40;99.90
20998;DHT22;10657;51.276;6.390;2023-02-11T16:42:21;8.40;99.90
20998;DHT22;10657;51.276;6.390;2023-02-11T16:44:47;8.40;99.90
20998;DHT22;10657;51.276;6.390;2023-02-11T16:47:24;8.40;99.90
20998;DHT22;10657;51.276;6.390;2023-02-11T16:49:51;8.40;99.90
20998;DHT22;10657;51.276;6.390;2023-02-11T16:52:19;8.40;99.90
20998;DHT22;10657;51.276;6.390;2023-02-11T16:54:46;8.40;99.90
20998;DHT22;10657;51.276;6.390;2023-02-11T16:57:21;8.40;99.90
20998;DHT22;10657;51.276;6.390;2023-02-11T16:59:49;8.40;99.90
20998;DHT22;10657;51.276;6.390;2023-02-11T17:02:25;8.40;99.90
20998;DHT22;10657;51.276;6.390;2023-02-11T17:04:54;8.40;99.90
20998;DHT22;10657;51.276;6.390;2023-02-11T17:07:21;8.40;99.90
20998;DHT22;10657;51.276;6.390;2023-02-11T17:09:47;8.30;99.90
20998;DHT22;10657;51.276;6.390;2023-02-11T17:12:14;8.30;99.90
20998;DHT22;10657;51.276;6.390;2023-02-11T17:14:41;8.30;99.90
20998;DHT22;10657;51.276;6.390;2023-02-11T17:17:08;8.30;99.90
20998;DHT22;10657;51.276;6.390;2023-02-11T17:19:35;8.30;99.90
20998;DHT22;10657;51.276;6.390;2023-02-11T17:22:02;8.30;99.90
20998;DHT22;10657;51.276;6.390;2023-02-11T17:24:29;8.30;99.90
20998;DHT22;10657;51.276;6.390;2023-02-11T17:26:55;8.20;99.90
20998;DHT22;10657;51.276;6.390;2023-02-11T17:29:23;8.20;99.90
20998;DHT22;10657;51.276;6.390;2023-02-11T17:31:51;8.20;99.90
20998;DHT22;10657;51.276;6.390;2023-02-11T17:34:19;8.20;99.90
20998;DHT22;10657;51.276;6.390;2023-02-11T17:36:46;8.20;99.90
20998;DHT22;10657;51.276;6.390;2023-02-11T17:39:13;8.20;99.90
20998;DHT22;10657;51.276;6.390;2023-02-11T17:41:40;8.20;99.90
20998;DHT22;10657;51.276;6.390;2023-02-11T17:44:07;8.20;99.90
20998;DHT22;10657;51.276;6.390;2023-02-11T17:46:37;8.20;99.90
20998;DHT22;10657;51.276;6.390;2023-02-11T17:49:04;8.20;99.90
20998;DHT22;10657;51.276;6.390;2023-02-11T17:51:33;8.20;99.90
20998;DHT22;10657;51.276;6.390;2023-02-11T17:54:11;8.20;99.90
20998;DHT22;10657;51.276;6.390;2023-02-11T17:56:39;8.20;99.90
20998;DHT22;10657;51.276;6.390;2023-02-11T17:59:07;8.20;99.90
20998;DHT22;10657;51.276;6.390;2023-02-11T18:01:36;8.20;99.90
20998;DHT22;10657;51.276;6.390;2023-02-11T18:04:03;8.20;99.90
20998;DHT22;10657;51.276;6.390;2023-02-11T18:06:30;8.20;99.90
20998;DHT22;10657;51.276;6.390;2023-02-11T18:08:59;8.20;99.90
20998;DHT22;10657;51.276;6.390;2023-02-11T18:11:29;8.20;99.90
20998;DHT22;10657;51.276;6.390;2023-02-11T18:14:00;8.20;99.90
20998;DHT22;10657;51.276;6.390;2023-02-11T18:16:27;8.20;99.90
20998;DHT22;10657;51.276;6.390;2023-02-11T18:18:56;8.20;99.90
20998;DHT22;10657;51.276;6.390;2023-02-11T18:21:24;8.20;99.90
20998;DHT22;10657;51.276;6.390;2023-02-11T18:23:50;8.20;99.90
20998;DHT22;10657;51.276;6.390;2023-02-11T18:26:19;8.10;99.90
20998;DHT22;10657;51.276;6.390;2023-02-11T18:28:46;8.10;99.90